sensor_id;sensor_type;location;lat;lon;timestamp;pressure;altitude;pressure_sealevel;temperature
70415;BMP280;57837;52.064;113.478;2023-10-13T00:00:37;93909.78;;;5.81
70415;BMP280;57837;52.064;113.478;2023-10-13T00:03:43;93914.81;;;5.88
70415;BMP280;57837;52.064;113.478;2023-10-13T00:07:09;93912.44;;;5.97
70415;BMP280;57837;52.064;113.478;2023-10-13T00:10:30;93917.56;;;6.17
70415;BMP280;57837;52.064;113.478;2023-10-13T00:13:44;93907.53;;;6.62
70415;BMP280;57837;52.064;113.478;2023-10-13T00:16:54;93915.00;;;7.41
70415;BMP280;57837;52.064;113.478;2023-10-13T00:20:23;93923.53;;;8.12
70415;BMP280;57837;52.064;113.478;2023-10-13T00:23:43;93925.31;;;8.69
70415;BMP280;57837;52.064;113.478;2023-10-13T00:26:56;93918.75;;;9.28
70415;BMP280;57837;52.064;113.478;2023-10-13T00:30:05;93914.88;;;9.79
70415;BMP280;57837;52.064;113.478;2023-10-13T00:33:24;93912.47;;;10.38
70415;BMP280;57837;52.064;113.478;2023-10-13T00:36:28;93912.94;;;10.85
70415;BMP280;57837;52.064;113.478;2023-10-13T00:39:36;93915.41;;;10.98
70415;BMP280;57837;52.064;113.478;2023-10-13T00:42:40;93907.44;;;10.74
70415;BMP280;57837;52.064;113.478;2023-10-13T00:45:57;93914.16;;;10.62
70415;BMP280;57837;52.064;113.478;2023-10-13T00:49:12;93909.06;;;10.81
70415;BMP280;57837;52.064;113.478;2023-10-13T00:52:18;93905.97;;;11.31
70415;BMP280;57837;52.064;113.478;2023-10-13T00:55:22;93902.22;;;11.50
70415;BMP280;57837;52.064;113.478;2023-10-13T00:58:27;93899.78;;;11.65
70415;BMP280;57837;52.064;113.478;2023-10-13T01:01:32;93896.19;;;11.63
70415;BMP280;57837;52.064;113.478;2023-10-13T01:04:39;93896.75;;;11.48
70415;BMP280;57837;52.064;113.478;2023-10-13T01:07:43;93903.66;;;11.24
70415;BMP280;57837;52.064;113.478;2023-10-13T01:10:46;93891.69;;;11.08
70415;BMP280;57837;52.064;113.478;2023-10-13T01:13:53;93888.69;;;11.19
70415;BMP280;57837;52.064;113.478;2023-10-13T01:16:57;93882.78;;;11.73
70415;BMP280;57837;52.064;113.478;2023-10-13T01:20:01;93872.94;;;12.37
70415;BMP280;57837;52.064;113.478;2023-10-13T01:23:08;93870.13;;;12.83
70415;BMP280;57837;52.064;113.478;2023-10-13T01:26:22;93875.50;;;12.79
70415;BMP280;57837;52.064;113.478;2023-10-13T01:29:30;93879.25;;;12.93
70415;BMP280;57837;52.064;113.478;2023-10-13T01:32:34;93878.50;;;13.02
70415;BMP280;57837;52.064;113.478;2023-10-13T01:35:43;93863.56;;;12.88
70415;BMP280;57837;52.064;113.478;2023-10-13T01:38:59;93865.41;;;12.96
70415;BMP280;57837;52.064;113.478;2023-10-13T01:42:04;93865.31;;;13.29
70415;BMP280;57837;52.064;113.478;2023-10-13T01:45:10;93856.97;;;13.40
70415;BMP280;57837;52.064;113.478;2023-10-13T01:48:13;93857.00;;;13.69
70415;BMP280;57837;52.064;113.478;2023-10-13T01:51:21;93853.03;;;14.03
70415;BMP280;57837;52.064;113.478;2023-10-13T01:54:31;93850.06;;;14.10
70415;BMP280;57837;52.064;113.478;2023-10-13T01:57:35;93851.50;;;13.96
70415;BMP280;57837;52.064;113.478;2023-10-13T02:00:39;93843.72;;;13.82
70415;BMP280;57837;52.064;113.478;2023-10-13T02:03:44;93842.97;;;14.10
70415;BMP280;57837;52.064;113.478;2023-10-13T02:06:52;93833.31;;;14.51
70415;BMP280;57837;52.064;113.478;2023-10-13T02:09:56;93835.47;;;14.93
70415;BMP280;57837;52.064;113.478;2023-10-13T02:13:00;93827.28;;;15.26
70415;BMP280;57837;52.064;113.478;2023-10-13T02:16:06;93828.28;;;15.66
70415;BMP280;57837;52.064;113.478;2023-10-13T02:19:11;93817.72;;;16.17
70415;BMP280;57837;52.064;113.478;2023-10-13T02:22:18;93812.16;;;16.47
70415;BMP280;57837;52.064;113.478;2023-10-13T02:25:35;93821.97;;;16.63
70415;BMP280;57837;52.064;113.478;2023-10-13T02:28:39;93814.69;;;16.95
70415;BMP280;57837;52.064;113.478;2023-10-13T02:31:43;93818.53;;;17.33
70415;BMP280;57837;52.064;113.478;2023-10-13T02:34:59;93813.06;;;17.58
70415;BMP280;57837;52.064;113.478;2023-10-13T02:38:10;93810.69;;;17.49
70415;BMP280;57837;52.064;113.478;2023-10-13T02:41:19;93809.72;;;17.58
70415;BMP280;57837;52.064;113.478;2023-10-13T02:44:29;93797.34;;;17.47
70415;BMP280;57837;52.064;113.478;2023-10-13T02:47:36;93794.69;;;17.86
70415;BMP280;57837;52.064;113.478;2023-10-13T02:50:40;93787.72;;;18.05
70415;BMP280;57837;52.064;113.478;2023-10-13T02:53:52;93779.47;;;18.42
70415;BMP280;57837;52.064;113.478;2023-10-13T02:56:57;93776.78;;;18.59
70415;BMP280;57837;52.064;113.478;2023-10-13T03:00:03;93770.88;;;18.53
70415;BMP280;57837;52.064;113.478;2023-10-13T03:03:17;93758.34;;;18.70
70415;BMP280;57837;52.064;113.478;2023-10-13T03:06:23;93761.34;;;18.85
70415;BMP280;57837;52.064;113.478;2023-10-13T03:09:35;93757.22;;;19.01
70415;BMP280;57837;52.064;113.478;2023-10-13T03:12:40;93754.47;;;19.12
70415;BMP280;57837;52.064;113.478;2023-10-13T03:15:46;93747.16;;;19.05
70415;BMP280;57837;52.064;113.478;2023-10-13T03:18:51;93742.97;;;18.91
70415;BMP280;57837;52.064;113.478;2023-10-13T03:21:57;93743.44;;;18.89
70415;BMP280;57837;52.064;113.478;2023-10-13T03:25:11;93737.19;;;18.98
70415;BMP280;57837;52.064;113.478;2023-10-13T03:28:21;93728.72;;;19.10
70415;BMP280;57837;52.064;113.478;2023-10-13T03:31:30;93726.28;;;19.18
70415;BMP280;57837;52.064;113.478;2023-10-13T03:34:44;93710.53;;;19.18
70415;BMP280;57837;52.064;113.478;2023-10-13T03:37:55;93715.06;;;19.18
70415;BMP280;57837;52.064;113.478;2023-10-13T03:40:58;93697.56;;;19.26
70415;BMP280;57837;52.064;113.478;2023-10-13T03:44:21;93691.13;;;19.27
70415;BMP280;57837;52.064;113.478;2023-10-13T03:47:25;93687.03;;;19.31
70415;BMP280;57837;52.064;113.478;2023-10-13T03:50:37;93684.25;;;19.42
70415;BMP280;57837;52.064;113.478;2023-10-13T03:53:48;93670.81;;;19.51
70415;BMP280;57837;52.064;113.478;2023-10-13T03:56:57;93670.97;;;19.59
70415;BMP280;57837;52.064;113.478;2023-10-13T04:00:08;93677.22;;;19.56
70415;BMP280;57837;52.064;113.478;2023-10-13T04:03:13;93675.97;;;19.63
70415;BMP280;57837;52.064;113.478;2023-10-13T04:06:21;93667.97;;;19.68
70415;BMP280;57837;52.064;113.478;2023-10-13T04:09:44;93654.78;;;19.74
70415;BMP280;57837;52.064;113.478;2023-10-13T04:12:52;93656.59;;;19.84
70415;BMP280;57837;52.064;113.478;2023-10-13T04:16:15;93649.91;;;19.83
70415;BMP280;57837;52.064;113.478;2023-10-13T04:19:38;93649.34;;;19.90
70415;BMP280;57837;52.064;113.478;2023-10-13T04:23:02;93637.81;;;19.93
70415;BMP280;57837;52.064;113.478;2023-10-13T04:26:06;93625.19;;;19.92
70415;BMP280;57837;52.064;113.478;2023-10-13T04:29:24;93622.06;;;19.93
70415;BMP280;57837;52.064;113.478;2023-10-13T04:32:51;93611.25;;;19.97
70415;BMP280;57837;52.064;113.478;2023-10-13T04:36:15;93602.91;;;20.11
70415;BMP280;57837;52.064;113.478;2023-10-13T04:39:31;93602.03;;;20.22
70415;BMP280;57837;52.064;113.478;2023-10-13T04:42:38;93593.56;;;20.29
70415;BMP280;57837;52.064;113.478;2023-10-13T04:46:01;93589.50;;;20.28
70415;BMP280;57837;52.064;113.478;2023-10-13T04:49:29;93580.91;;;20.28
70415;BMP280;57837;52.064;113.478;2023-10-13T04:52:38;93567.53;;;20.44
70415;BMP280;57837;52.064;113.478;2023-10-13T04:56:02;93560.97;;;20.64
70415;BMP280;57837;52.064;113.478;2023-10-13T04:59:05;93556.31;;;20.70
70415;BMP280;57837;52.064;113.478;2023-10-13T05:02:21;93560.03;;;20.75
70415;BMP280;57837;52.064;113.478;2023-10-13T05:05:44;93537.69;;;20.81
70415;BMP280;57837;52.064;113.478;2023-10-13T05:09:20;93529.19;;;20.88
70415;BMP280;57837;52.064;113.478;2023-10-13T05:13:26;93522.41;;;20.93
70415;BMP280;57837;52.064;113.478;2023-10-13T05:17:09;93517.44;;;20.89
70415;BMP280;57837;52.064;113.478;2023-10-13T05:20:36;93512.09;;;20.82
70415;BMP280;57837;52.064;113.478;2023-10-13T05:24:01;93511.16;;;20.79
70415;BMP280;57837;52.064;113.478;2023-10-13T05:27:24;93497.44;;;20.73
70415;BMP280;57837;52.064;113.478;2023-10-13T05:31:27;93493.44;;;20.53
70415;BMP280;57837;52.064;113.478;2023-10-13T05:34:50;93477.19;;;20.42
70415;BMP280;57837;52.064;113.478;2023-10-13T05:38:23;93473.53;;;20.19
70415;BMP280;57837;52.064;113.478;2023-10-13T05:41:45;93470.09;;;20.10
70415;BMP280;57837;52.064;113.478;2023-10-13T05:45:09;93464.00;;;20.16
70415;BMP280;57837;52.064;113.478;2023-10-13T05:48:21;93453.50;;;20.29
70415;BMP280;57837;52.064;113.478;2023-10-13T05:51:45;93449.03;;;20.50
70415;BMP280;57837;52.064;113.478;2023-10-13T05:55:11;93445.00;;;20.62
70415;BMP280;57837;52.064;113.478;2023-10-13T05:58:33;93444.91;;;20.68
70415;BMP280;57837;52.064;113.478;2023-10-13T06:01:57;93432.22;;;20.79
70415;BMP280;57837;52.064;113.478;2023-10-13T06:05:19;93430.19;;;20.85
70415;BMP280;57837;52.064;113.478;2023-10-13T06:08:58;93423.81;;;20.94
70415;BMP280;57837;52.064;113.478;2023-10-13T06:12:20;93413.97;;;20.94
70415;BMP280;57837;52.064;113.478;2023-10-13T06:15:42;93408.69;;;20.94
70415;BMP280;57837;52.064;113.478;2023-10-13T06:19:04;93407.09;;;20.91
70415;BMP280;57837;52.064;113.478;2023-10-13T06:22:26;93413.06;;;20.92
70415;BMP280;57837;52.064;113.478;2023-10-13T06:25:52;93400.13;;;20.94
70415;BMP280;57837;52.064;113.478;2023-10-13T06:29:14;93400.69;;;21.00
70415;BMP280;57837;52.064;113.478;2023-10-13T06:32:23;93389.81;;;21.03
70415;BMP280;57837;52.064;113.478;2023-10-13T06:35:29;93390.16;;;21.00
70415;BMP280;57837;52.064;113.478;2023-10-13T06:38:37;93389.31;;;21.05
70415;BMP280;57837;52.064;113.478;2023-10-13T06:41:41;93383.75;;;21.08
70415;BMP280;57837;52.064;113.478;2023-10-13T06:44:45;93382.09;;;21.19
70415;BMP280;57837;52.064;113.478;2023-10-13T06:47:49;93380.25;;;21.27
70415;BMP280;57837;52.064;113.478;2023-10-13T06:50:55;93370.41;;;21.27
70415;BMP280;57837;52.064;113.478;2023-10-13T06:53:59;93363.06;;;21.33
70415;BMP280;57837;52.064;113.478;2023-10-13T06:57:03;93368.72;;;21.37
70415;BMP280;57837;52.064;113.478;2023-10-13T07:00:13;93361.69;;;21.40
70415;BMP280;57837;52.064;113.478;2023-10-13T07:03:22;93356.13;;;21.43
70415;BMP280;57837;52.064;113.478;2023-10-13T07:06:27;93360.56;;;21.48
70415;BMP280;57837;52.064;113.478;2023-10-13T07:09:34;93355.53;;;21.58
70415;BMP280;57837;52.064;113.478;2023-10-13T07:12:39;93353.31;;;21.70
70415;BMP280;57837;52.064;113.478;2023-10-13T07:15:46;93353.19;;;21.83
70415;BMP280;57837;52.064;113.478;2023-10-13T07:18:50;93345.91;;;21.96
70415;BMP280;57837;52.064;113.478;2023-10-13T07:21:59;93336.50;;;22.08
70415;BMP280;57837;52.064;113.478;2023-10-13T07:25:02;93334.75;;;22.19
70415;BMP280;57837;52.064;113.478;2023-10-13T07:28:08;93323.47;;;22.10
70415;BMP280;57837;52.064;113.478;2023-10-13T07:31:15;93318.88;;;22.03
70415;BMP280;57837;52.064;113.478;2023-10-13T07:34:18;93311.13;;;21.98
70415;BMP280;57837;52.064;113.478;2023-10-13T07:37:32;93311.50;;;22.02
70415;BMP280;57837;52.064;113.478;2023-10-13T07:40:40;93304.63;;;21.99
70415;BMP280;57837;52.064;113.478;2023-10-13T07:43:45;93306.38;;;21.96
70415;BMP280;57837;52.064;113.478;2023-10-13T07:46:48;93294.56;;;21.90
70415;BMP280;57837;52.064;113.478;2023-10-13T07:50:02;93290.28;;;21.79
70415;BMP280;57837;52.064;113.478;2023-10-13T07:53:09;93293.09;;;21.74
70415;BMP280;57837;52.064;113.478;2023-10-13T07:56:36;93278.44;;;21.65
70415;BMP280;57837;52.064;113.478;2023-10-13T07:59:42;93281.53;;;21.56
70415;BMP280;57837;52.064;113.478;2023-10-13T08:03:13;93283.44;;;21.48
70415;BMP280;57837;52.064;113.478;2023-10-13T08:06:20;93282.34;;;21.43
70415;BMP280;57837;52.064;113.478;2023-10-13T08:09:25;93277.56;;;21.34
70415;BMP280;57837;52.064;113.478;2023-10-13T08:12:43;93271.03;;;21.28
70415;BMP280;57837;52.064;113.478;2023-10-13T08:15:49;93260.44;;;21.20
70415;BMP280;57837;52.064;113.478;2023-10-13T08:18:53;93266.34;;;21.13
70415;BMP280;57837;52.064;113.478;2023-10-13T08:21:59;93259.81;;;21.06
70415;BMP280;57837;52.064;113.478;2023-10-13T08:25:03;93256.25;;;20.96
70415;BMP280;57837;52.064;113.478;2023-10-13T08:28:24;93255.78;;;20.85
70415;BMP280;57837;52.064;113.478;2023-10-13T08:31:59;93251.31;;;20.72
70415;BMP280;57837;52.064;113.478;2023-10-13T08:35:24;93254.69;;;20.59
70415;BMP280;57837;52.064;113.478;2023-10-13T08:38:34;93254.22;;;20.48
70415;BMP280;57837;52.064;113.478;2023-10-13T08:41:54;93250.03;;;20.32
70415;BMP280;57837;52.064;113.478;2023-10-13T08:45:16;93237.03;;;20.13
70415;BMP280;57837;52.064;113.478;2023-10-13T08:48:27;93239.78;;;20.07
70415;BMP280;57837;52.064;113.478;2023-10-13T08:51:35;93238.38;;;19.93
70415;BMP280;57837;52.064;113.478;2023-10-13T08:54:53;93235.06;;;19.80
70415;BMP280;57837;52.064;113.478;2023-10-13T08:58:12;93225.78;;;19.66
70415;BMP280;57837;52.064;113.478;2023-10-13T09:04:45;93216.47;;;19.38
70415;BMP280;57837;52.064;113.478;2023-10-13T09:07:50;93221.72;;;19.25
70415;BMP280;57837;52.064;113.478;2023-10-13T09:11:04;93228.88;;;19.11
70415;BMP280;57837;52.064;113.478;2023-10-13T09:14:16;93216.22;;;18.97
70415;BMP280;57837;52.064;113.478;2023-10-13T09:17:47;93211.47;;;18.82
70415;BMP280;57837;52.064;113.478;2023-10-13T09:21:12;93205.47;;;18.69
70415;BMP280;57837;52.064;113.478;2023-10-13T09:24:36;93203.94;;;18.60
70415;BMP280;57837;52.064;113.478;2023-10-13T09:27:40;93213.09;;;18.53
70415;BMP280;57837;52.064;113.478;2023-10-13T09:30:48;93212.75;;;18.44
70415;BMP280;57837;52.064;113.478;2023-10-13T09:33:52;93207.44;;;18.31
70415;BMP280;57837;52.064;113.478;2023-10-13T09:36:59;93201.63;;;18.19
70415;BMP280;57837;52.064;113.478;2023-10-13T09:40:07;93199.44;;;18.04
70415;BMP280;57837;52.064;113.478;2023-10-13T09:43:28;93202.00;;;17.91
70415;BMP280;57837;52.064;113.478;2023-10-13T09:46:37;93200.69;;;17.79
70415;BMP280;57837;52.064;113.478;2023-10-13T09:49:45;93200.84;;;17.68
70415;BMP280;57837;52.064;113.478;2023-10-13T09:52:48;93198.81;;;17.55
70415;BMP280;57837;52.064;113.478;2023-10-13T09:56:12;93199.16;;;17.46
70415;BMP280;57837;52.064;113.478;2023-10-13T09:59:33;93192.63;;;17.34
70415;BMP280;57837;52.064;113.478;2023-10-13T10:02:39;93195.56;;;17.25
70415;BMP280;57837;52.064;113.478;2023-10-13T10:06:01;93189.44;;;17.17
70415;BMP280;57837;52.064;113.478;2023-10-13T10:09:31;93188.34;;;17.07
70415;BMP280;57837;52.064;113.478;2023-10-13T10:13:00;93186.00;;;17.03
70415;BMP280;57837;52.064;113.478;2023-10-13T10:16:11;93193.16;;;16.97
70415;BMP280;57837;52.064;113.478;2023-10-13T10:19:23;93190.59;;;16.92
70415;BMP280;57837;52.064;113.478;2023-10-13T10:22:28;93189.47;;;16.87
70415;BMP280;57837;52.064;113.478;2023-10-13T10:25:36;93191.91;;;16.79
70415;BMP280;57837;52.064;113.478;2023-10-13T10:28:42;93185.75;;;16.71
70415;BMP280;57837;52.064;113.478;2023-10-13T10:31:46;93187.69;;;16.65
70415;BMP280;57837;52.064;113.478;2023-10-13T10:34:51;93183.94;;;16.61
70415;BMP280;57837;52.064;113.478;2023-10-13T10:38:12;93181.34;;;16.55
70415;BMP280;57837;52.064;113.478;2023-10-13T10:41:26;93181.63;;;16.52
70415;BMP280;57837;52.064;113.478;2023-10-13T10:44:40;93171.44;;;16.48
70415;BMP280;57837;52.064;113.478;2023-10-13T10:47:49;93165.75;;;16.44
70415;BMP280;57837;52.064;113.478;2023-10-13T10:50:54;93162.47;;;16.38
70415;BMP280;57837;52.064;113.478;2023-10-13T10:53:58;93149.00;;;16.28
70415;BMP280;57837;52.064;113.478;2023-10-13T10:57:15;93153.56;;;16.22
70415;BMP280;57837;52.064;113.478;2023-10-13T11:00:21;93145.25;;;16.13
70415;BMP280;57837;52.064;113.478;2023-10-13T11:03:41;93139.19;;;15.99
70415;BMP280;57837;52.064;113.478;2023-10-13T11:06:56;93141.09;;;15.93
70415;BMP280;57837;52.064;113.478;2023-10-13T11:10:10;93132.38;;;15.85
70415;BMP280;57837;52.064;113.478;2023-10-13T11:13:44;93133.84;;;15.75
70415;BMP280;57837;52.064;113.478;2023-10-13T11:17:21;93132.47;;;15.57
70415;BMP280;57837;52.064;113.478;2023-10-13T11:20:29;93124.00;;;15.46
70415;BMP280;57837;52.064;113.478;2023-10-13T11:23:55;93119.50;;;15.40
70415;BMP280;57837;52.064;113.478;2023-10-13T11:26:59;93116.22;;;15.29
70415;BMP280;57837;52.064;113.478;2023-10-13T11:30:06;93110.56;;;15.25
70415;BMP280;57837;52.064;113.478;2023-10-13T11:33:16;93106.25;;;15.27
70415;BMP280;57837;52.064;113.478;2023-10-13T11:36:32;93103.41;;;15.20
70415;BMP280;57837;52.064;113.478;2023-10-13T11:39:38;93099.91;;;15.06
70415;BMP280;57837;52.064;113.478;2023-10-13T11:42:46;93097.06;;;14.98
70415;BMP280;57837;52.064;113.478;2023-10-13T11:45:50;93091.16;;;14.92
70415;BMP280;57837;52.064;113.478;2023-10-13T11:49:13;93086.44;;;14.74
70415;BMP280;57837;52.064;113.478;2023-10-13T11:52:17;93071.06;;;14.65
70415;BMP280;57837;52.064;113.478;2023-10-13T11:55:21;93063.69;;;14.58
70415;BMP280;57837;52.064;113.478;2023-10-13T11:58:24;93062.53;;;14.53
70415;BMP280;57837;52.064;113.478;2023-10-13T12:01:29;93063.94;;;14.54
70415;BMP280;57837;52.064;113.478;2023-10-13T12:05:08;93064.88;;;14.63
70415;BMP280;57837;52.064;113.478;2023-10-13T12:08:15;93059.44;;;14.66
70415;BMP280;57837;52.064;113.478;2023-10-13T12:11:25;93061.06;;;14.75
70415;BMP280;57837;52.064;113.478;2023-10-13T12:14:36;93054.94;;;14.72
70415;BMP280;57837;52.064;113.478;2023-10-13T12:17:40;93065.84;;;14.65
70415;BMP280;57837;52.064;113.478;2023-10-13T12:20:48;93056.34;;;14.51
70415;BMP280;57837;52.064;113.478;2023-10-13T12:23:53;93055.19;;;14.41
70415;BMP280;57837;52.064;113.478;2023-10-13T12:26:57;93051.41;;;14.36
70415;BMP280;57837;52.064;113.478;2023-10-13T12:30:01;93054.72;;;14.31
70415;BMP280;57837;52.064;113.478;2023-10-13T12:33:11;93047.38;;;14.24
70415;BMP280;57837;52.064;113.478;2023-10-13T12:36:15;93053.06;;;14.17
70415;BMP280;57837;52.064;113.478;2023-10-13T12:39:25;93048.06;;;14.08
70415;BMP280;57837;52.064;113.478;2023-10-13T12:42:47;93044.00;;;13.96
70415;BMP280;57837;52.064;113.478;2023-10-13T12:46:09;93044.50;;;13.89
70415;BMP280;57837;52.064;113.478;2023-10-13T12:49:35;93033.38;;;13.83
70415;BMP280;57837;52.064;113.478;2023-10-13T12:53:02;93027.66;;;13.73
70415;BMP280;57837;52.064;113.478;2023-10-13T12:56:06;93025.50;;;13.66
70415;BMP280;57837;52.064;113.478;2023-10-13T12:59:14;93028.09;;;13.66
70415;BMP280;57837;52.064;113.478;2023-10-13T13:02:17;93021.97;;;13.63
70415;BMP280;57837;52.064;113.478;2023-10-13T13:05:24;93020.09;;;13.64
70415;BMP280;57837;52.064;113.478;2023-10-13T13:08:32;93026.69;;;13.65
70415;BMP280;57837;52.064;113.478;2023-10-13T13:11:38;93010.88;;;13.63
70415;BMP280;57837;52.064;113.478;2023-10-13T13:14:43;93015.34;;;13.62
70415;BMP280;57837;52.064;113.478;2023-10-13T13:17:49;93007.56;;;13.62
70415;BMP280;57837;52.064;113.478;2023-10-13T13:20:54;93013.47;;;13.63
70415;BMP280;57837;52.064;113.478;2023-10-13T13:23:57;93010.59;;;13.61
70415;BMP280;57837;52.064;113.478;2023-10-13T13:27:01;93007.75;;;13.59
70415;BMP280;57837;52.064;113.478;2023-10-13T13:30:09;92996.41;;;13.56
70415;BMP280;57837;52.064;113.478;2023-10-13T13:33:15;93000.41;;;13.52
70415;BMP280;57837;52.064;113.478;2023-10-13T13:36:19;92998.03;;;13.48
70415;BMP280;57837;52.064;113.478;2023-10-13T13:39:24;92988.56;;;13.45
70415;BMP280;57837;52.064;113.478;2023-10-13T13:42:34;92994.44;;;13.40
70415;BMP280;57837;52.064;113.478;2023-10-13T13:45:40;92994.72;;;13.37
70415;BMP280;57837;52.064;113.478;2023-10-13T13:48:44;92989.94;;;13.30
70415;BMP280;57837;52.064;113.478;2023-10-13T13:51:50;92984.00;;;13.18
70415;BMP280;57837;52.064;113.478;2023-10-13T13:54:57;92975.41;;;13.01
70415;BMP280;57837;52.064;113.478;2023-10-13T13:58:06;92969.19;;;12.87
70415;BMP280;57837;52.064;113.478;2023-10-13T14:01:11;92960.94;;;12.83
70415;BMP280;57837;52.064;113.478;2023-10-13T14:04:33;92961.16;;;12.79
70415;BMP280;57837;52.064;113.478;2023-10-13T14:07:36;92958.56;;;12.79
70415;BMP280;57837;52.064;113.478;2023-10-13T14:10:40;92959.03;;;12.78
70415;BMP280;57837;52.064;113.478;2023-10-13T14:14:02;92943.44;;;12.78
70415;BMP280;57837;52.064;113.478;2023-10-13T14:17:15;92945.06;;;12.75
70415;BMP280;57837;52.064;113.478;2023-10-13T14:20:19;92931.59;;;12.71
70415;BMP280;57837;52.064;113.478;2023-10-13T14:23:22;92917.66;;;12.69
70415;BMP280;57837;52.064;113.478;2023-10-13T14:26:25;92904.66;;;12.69
70415;BMP280;57837;52.064;113.478;2023-10-13T14:29:53;92897.59;;;12.69
70415;BMP280;57837;52.064;113.478;2023-10-13T14:32:56;92903.25;;;12.68
70415;BMP280;57837;52.064;113.478;2023-10-13T14:36:01;92897.34;;;12.67
70415;BMP280;57837;52.064;113.478;2023-10-13T14:39:07;92891.41;;;12.61
70415;BMP280;57837;52.064;113.478;2023-10-13T14:42:11;92882.16;;;12.49
70415;BMP280;57837;52.064;113.478;2023-10-13T14:45:17;92877.84;;;12.40
70415;BMP280;57837;52.064;113.478;2023-10-13T14:48:20;92867.19;;;12.27
70415;BMP280;57837;52.064;113.478;2023-10-13T14:51:27;92874.63;;;12.14
70415;BMP280;57837;52.064;113.478;2023-10-13T14:54:32;92870.06;;;11.98
70415;BMP280;57837;52.064;113.478;2023-10-13T14:57:37;92865.25;;;11.85
70415;BMP280;57837;52.064;113.478;2023-10-13T15:00:42;92853.41;;;11.79
70415;BMP280;57837;52.064;113.478;2023-10-13T15:03:51;92845.81;;;11.75
70415;BMP280;57837;52.064;113.478;2023-10-13T15:07:02;92843.66;;;11.68
70415;BMP280;57837;52.064;113.478;2023-10-13T15:10:05;92846.00;;;11.66
70415;BMP280;57837;52.064;113.478;2023-10-13T15:13:10;92828.75;;;11.57
70415;BMP280;57837;52.064;113.478;2023-10-13T15:16:14;92830.31;;;11.49
70415;BMP280;57837;52.064;113.478;2023-10-13T15:19:19;92826.72;;;11.41
70415;BMP280;57837;52.064;113.478;2023-10-13T15:22:22;92818.44;;;11.37
70415;BMP280;57837;52.064;113.478;2023-10-13T15:25:30;92810.91;;;11.39
70415;BMP280;57837;52.064;113.478;2023-10-13T15:28:42;92797.00;;;11.37
70415;BMP280;57837;52.064;113.478;2023-10-13T15:31:51;92791.75;;;11.31
70415;BMP280;57837;52.064;113.478;2023-10-13T15:35:03;92784.66;;;11.26
70415;BMP280;57837;52.064;113.478;2023-10-13T15:38:07;92776.63;;;11.24
70415;BMP280;57837;52.064;113.478;2023-10-13T15:41:10;92769.78;;;11.21
70415;BMP280;57837;52.064;113.478;2023-10-13T15:44:14;92766.69;;;11.17
70415;BMP280;57837;52.064;113.478;2023-10-13T15:47:18;92761.50;;;11.17
70415;BMP280;57837;52.064;113.478;2023-10-13T15:50:25;92755.63;;;11.16
70415;BMP280;57837;52.064;113.478;2023-10-13T15:53:33;92755.63;;;11.16
70415;BMP280;57837;52.064;113.478;2023-10-13T15:56:39;92753.25;;;11.13
70415;BMP280;57837;52.064;113.478;2023-10-13T15:59:43;92749.69;;;11.10
70415;BMP280;57837;52.064;113.478;2023-10-13T16:02:57;92741.91;;;11.10
70415;BMP280;57837;52.064;113.478;2023-10-13T16:06:03;92739.50;;;11.07
70415;BMP280;57837;52.064;113.478;2023-10-13T16:09:13;92726.25;;;10.99
70415;BMP280;57837;52.064;113.478;2023-10-13T16:12:17;92742.28;;;10.98
70415;BMP280;57837;52.064;113.478;2023-10-13T16:15:20;92732.38;;;10.96
70415;BMP280;57837;52.064;113.478;2023-10-13T16:18:24;92728.34;;;10.95
70415;BMP280;57837;52.064;113.478;2023-10-13T16:21:27;92715.84;;;10.94
70415;BMP280;57837;52.064;113.478;2023-10-13T16:24:32;92713.50;;;10.90
70415;BMP280;57837;52.064;113.478;2023-10-13T16:27:38;92705.94;;;10.87
70415;BMP280;57837;52.064;113.478;2023-10-13T16:30:43;92703.78;;;10.85
70415;BMP280;57837;52.064;113.478;2023-10-13T16:33:49;92697.72;;;10.88
70415;BMP280;57837;52.064;113.478;2023-10-13T16:36:53;92691.81;;;10.88
70415;BMP280;57837;52.064;113.478;2023-10-13T16:39:58;92678.88;;;10.88
70415;BMP280;57837;52.064;113.478;2023-10-13T16:43:07;92691.78;;;10.82
70415;BMP280;57837;52.064;113.478;2023-10-13T16:46:12;92687.25;;;10.77
70415;BMP280;57837;52.064;113.478;2023-10-13T16:49:16;92680.16;;;10.72
70415;BMP280;57837;52.064;113.478;2023-10-13T16:52:19;92678.47;;;10.69
70415;BMP280;57837;52.064;113.478;2023-10-13T16:55:22;92667.41;;;10.68
70415;BMP280;57837;52.064;113.478;2023-10-13T16:58:27;92670.91;;;10.65
70415;BMP280;57837;52.064;113.478;2023-10-13T17:01:33;92656.50;;;10.59
70415;BMP280;57837;52.064;113.478;2023-10-13T17:04:36;92663.06;;;10.54
70415;BMP280;57837;52.064;113.478;2023-10-13T17:07:39;92665.38;;;10.52
70415;BMP280;57837;52.064;113.478;2023-10-13T17:10:42;92653.16;;;10.53
70415;BMP280;57837;52.064;113.478;2023-10-13T17:13:47;92654.56;;;10.54
70415;BMP280;57837;52.064;113.478;2023-10-13T17:16:53;92640.47;;;10.55
70415;BMP280;57837;52.064;113.478;2023-10-13T17:20:03;92643.56;;;10.59
70415;BMP280;57837;52.064;113.478;2023-10-13T17:23:08;92641.03;;;10.64
70415;BMP280;57837;52.064;113.478;2023-10-13T17:26:13;92641.28;;;10.66
70415;BMP280;57837;52.064;113.478;2023-10-13T17:29:18;92636.59;;;10.65
70415;BMP280;57837;52.064;113.478;2023-10-13T17:32:25;92627.41;;;10.64
70415;BMP280;57837;52.064;113.478;2023-10-13T17:35:28;92625.44;;;10.59
70415;BMP280;57837;52.064;113.478;2023-10-13T17:38:34;92623.75;;;10.50
70415;BMP280;57837;52.064;113.478;2023-10-13T17:41:37;92617.06;;;10.44
70415;BMP280;57837;52.064;113.478;2023-10-13T17:44:40;92607.38;;;10.39
70415;BMP280;57837;52.064;113.478;2023-10-13T17:47:45;92599.59;;;10.33
70415;BMP280;57837;52.064;113.478;2023-10-13T17:50:48;92594.56;;;10.24